Time;durP1;ratioP1;P1;durP2;ratioP2;P2;SDS_P1;SDS_P2;PMS_P1;PMS_P2;Temp;Humidity;BMP_temperature;BMP_pressure;BME280_temperature;BME280_humidity;BME280_pressure;Samples;Min_cycle;Max_cycle;Signal;HPM_P1;HPM_P2
2021/09/07 00:01:34;;;;;;;17.27;8.13;;;14.70;99.90;;;;;;4912454;29;20586;-74
2021/09/07 00:04:00;;;;;;;12.50;6.82;;;14.70;99.90;;;;;;4929776;29;20158;-76
2021/09/07 00:06:26;;;;;;;10.80;5.15;;;14.70;99.90;;;;;;4929871;29;20092;-76
2021/09/07 00:08:51;;;;;;;11.98;6.32;;;14.70;99.90;;;;;;4929448;29;20378;-76
2021/09/07 00:11:17;;;;;;;13.98;6.90;;;14.70;99.90;;;;;;4929340;29;20068;-74
2021/09/07 00:13:44;;;;;;;11.93;6.28;;;14.70;99.90;;;;;;4929334;29;20071;-75
2021/09/07 00:16:10;;;;;;;15.40;6.55;;;14.60;99.90;;;;;;4929089;29;20043;-75
2021/09/07 00:18:36;;;;;;;12.77;6.15;;;14.60;99.90;;;;;;4912624;29;20034;-74
2021/09/07 00:21:01;;;;;;;9.93;5.88;;;14.60;99.90;;;;;;4929501;29;20055;-76
2021/09/07 00:23:27;;;;;;;9.50;5.28;;;14.60;99.90;;;;;;4912187;29;20064;-75
2021/09/07 00:25:53;;;;;;;14.05;6.65;;;14.60;99.90;;;;;;4912747;29;20056;-74
2021/09/07 00:28:18;;;;;;;11.18;5.50;;;14.50;99.90;;;;;;4912204;29;20051;-75
2021/09/07 00:30:44;;;;;;;11.48;6.22;;;14.50;99.90;;;;;;4928850;29;20564;-74
2021/09/07 00:33:10;;;;;;;10.55;5.90;;;14.50;99.90;;;;;;4929424;29;20032;-76
2021/09/07 00:35:36;;;;;;;20.30;7.20;;;14.50;99.90;;;;;;4911939;29;20024;-75
2021/09/07 00:38:02;;;;;;;13.32;6.50;;;14.50;99.90;;;;;;4928937;29;20463;-75
2021/09/07 00:40:28;;;;;;;13.80;6.72;;;14.50;99.90;;;;;;4929287;29;20056;-77
2021/09/07 00:42:54;;;;;;;10.45;6.13;;;14.50;99.90;;;;;;4928925;29;20035;-76
2021/09/07 00:45:20;;;;;;;15.80;7.30;;;14.50;99.90;;;;;;4929118;29;20043;-74
2021/09/07 00:47:45;;;;;;;16.02;7.43;;;14.50;99.90;;;;;;4912097;29;20032;-75
2021/09/07 00:50:12;;;;;;;19.95;6.35;;;14.50;99.90;;;;;;4928522;29;20052;-76
2021/09/07 00:52:40;;;;;;;19.77;7.80;;;14.50;99.90;;;;;;4911075;29;20441;-76
2021/09/07 00:55:07;;;;;;;25.38;7.88;;;14.50;99.90;;;;;;4928859;29;20044;-75
2021/09/07 00:57:34;;;;;;;12.98;6.53;;;14.50;99.90;;;;;;4928409;29;20032;-75
2021/09/07 01:00:04;;;;;;;12.30;6.85;;;14.50;99.90;;;;;;4928538;29;20028;-77
2021/09/07 01:02:29;;;;;;;13.10;7.05;;;14.50;99.90;;;;;;4928710;29;20075;-75
2021/09/07 01:04:56;;;;;;;14.43;6.80;;;14.50;99.90;;;;;;4928525;29;20095;-77
2021/09/07 01:07:22;;;;;;;13.90;6.30;;;14.50;99.90;;;;;;4928990;29;20044;-75
2021/09/07 01:09:48;;;;;;;14.27;6.75;;;14.50;99.90;;;;;;4928782;29;20405;-75
2021/09/07 01:12:23;;;;;;;15.68;7.22;;;14.50;99.90;;;;;;4927901;29;20466;-76
2021/09/07 01:14:49;;;;;;;14.18;7.15;;;14.50;99.90;;;;;;4891169;29;20044;-75
2021/09/07 01:17:17;;;;;;;17.17;7.80;;;14.50;99.90;;;;;;4890826;29;20039;-76
2021/09/07 01:19:46;;;;;;;17.30;7.30;;;14.40;99.90;;;;;;4890538;29;20041;-74
2021/09/07 01:22:12;;;;;;;13.55;6.32;;;14.40;99.90;;;;;;4890624;29;20025;-75
2021/09/07 01:24:38;;;;;;;17.35;6.95;;;14.30;99.90;;;;;;4890680;29;20041;-74
2021/09/07 01:27:07;;;;;;;13.82;7.30;;;14.40;99.90;;;;;;4890697;29;20033;-74
2021/09/07 01:29:34;;;;;;;22.50;7.28;;;14.40;99.90;;;;;;4890560;29;20089;-72
2021/09/07 01:32:01;;;;;;;13.80;6.00;;;14.40;99.90;;;;;;4891003;29;20032;-75
2021/09/07 01:34:28;;;;;;;16.23;7.18;;;14.40;99.90;;;;;;4889109;29;20071;-74
2021/09/07 01:36:54;;;;;;;19.25;7.53;;;14.40;99.90;;;;;;4890957;29;20029;-76
2021/09/07 01:39:19;;;;;;;15.55;7.70;;;14.40;99.90;;;;;;4890570;29;20080;-74
2021/09/07 01:41:45;;;;;;;16.00;7.68;;;14.30;99.90;;;;;;4890576;29;20061;-74
2021/09/07 01:44:11;;;;;;;16.90;8.00;;;14.30;99.90;;;;;;4890574;29;20037;-74
2021/09/07 01:46:37;;;;;;;19.10;7.57;;;14.30;99.90;;;;;;4890330;29;20085;-75
2021/09/07 01:49:03;;;;;;;19.38;7.07;;;14.20;99.90;;;;;;4889072;29;20029;-75
2021/09/07 01:51:28;;;;;;;15.48;7.78;;;14.20;99.90;;;;;;4890281;29;20085;-75
2021/09/07 01:53:54;;;;;;;15.15;7.85;;;14.20;99.90;;;;;;4890140;29;20053;-76
2021/09/07 01:56:20;;;;;;;15.13;6.68;;;14.20;99.90;;;;;;4904890;29;20040;-75
2021/09/07 01:58:45;;;;;;;14.05;7.25;;;14.10;99.90;;;;;;4890297;29;20064;-74
2021/09/07 02:01:11;;;;;;;16.73;8.05;;;14.10;99.90;;;;;;4890114;29;20037;-74
2021/09/07 02:03:37;;;;;;;13.93;6.97;;;14.10;99.90;;;;;;4892369;29;20032;-74
2021/09/07 02:06:02;;;;;;;16.25;8.07;;;14.00;99.90;;;;;;4908717;29;20029;-74
2021/09/07 02:08:28;;;;;;;23.45;7.80;;;14.00;99.90;;;;;;4908265;29;20033;-75
2021/09/07 02:10:53;;;;;;;15.77;6.85;;;14.00;99.90;;;;;;4908196;29;20393;-73
2021/09/07 02:13:19;;;;;;;17.25;7.65;;;14.00;99.90;;;;;;4908244;29;20056;-73
2021/09/07 02:15:45;;;;;;;14.88;7.28;;;14.00;99.90;;;;;;4914314;29;20028;-74
2021/09/07 02:18:10;;;;;;;14.77;6.88;;;14.00;99.90;;;;;;4931534;29;20071;-74
2021/09/07 02:20:36;;;;;;;15.05;7.45;;;14.00;99.90;;;;;;4931485;29;20028;-75
2021/09/07 02:23:05;;;;;;;11.52;7.05;;;14.10;99.90;;;;;;4914372;29;20038;-75
2021/09/07 02:25:31;;;;;;;14.63;7.82;;;14.00;99.90;;;;;;4931283;29;20036;-74
2021/09/07 02:27:57;;;;;;;13.30;6.70;;;14.00;99.90;;;;;;4931664;29;20063;-76
2021/09/07 02:30:23;;;;;;;20.75;7.15;;;14.00;99.90;;;;;;4913993;29;20103;-74
2021/09/07 02:32:48;;;;;;;15.18;7.55;;;14.00;99.90;;;;;;4914277;29;20051;-74
2021/09/07 02:35:14;;;;;;;14.45;7.43;;;13.90;99.90;;;;;;4914145;29;20020;-74
2021/09/07 02:37:41;;;;;;;15.90;6.93;;;13.90;99.90;;;;;;4930613;29;20039;-76
2021/09/07 02:40:07;;;;;;;16.42;7.40;;;13.90;99.90;;;;;;4931234;29;20016;-75
2021/09/07 02:42:32;;;;;;;25.58;8.18;;;13.90;99.90;;;;;;4931034;29;20111;-75
2021/09/07 02:44:58;;;;;;;11.82;6.63;;;13.90;99.90;;;;;;4930936;29;20512;-74
2021/09/07 02:47:24;;;;;;;20.67;8.23;;;13.90;99.90;;;;;;4931124;29;20028;-75
2021/09/07 02:49:49;;;;;;;14.05;6.78;;;13.90;99.90;;;;;;4931039;29;20054;-76
2021/09/07 02:52:15;;;;;;;20.13;7.68;;;13.90;99.90;;;;;;4930619;29;20036;-76
2021/09/07 02:54:40;;;;;;;19.05;7.88;;;14.00;99.90;;;;;;4930703;29;20031;-74
2021/09/07 02:57:06;;;;;;;14.18;7.03;;;14.00;99.90;;;;;;4913491;29;20496;-76
2021/09/07 02:59:31;;;;;;;15.30;7.07;;;14.00;99.90;;;;;;4913436;29;20031;-75
2021/09/07 03:01:57;;;;;;;22.80;7.40;;;14.00;99.90;;;;;;4930980;29;20028;-74
2021/09/07 03:04:23;;;;;;;19.40;6.85;;;14.00;99.90;;;;;;4930343;29;20032;-75
2021/09/07 03:06:49;;;;;;;15.57;6.80;;;14.00;99.90;;;;;;4930819;29;20044;-76
2021/09/07 03:09:15;;;;;;;16.92;6.10;;;14.00;99.90;;;;;;4930632;29;20079;-74
2021/09/07 03:11:40;;;;;;;16.10;7.75;;;14.00;99.90;;;;;;4930058;29;20043;-74
2021/09/07 03:14:06;;;;;;;18.80;7.63;;;14.00;99.90;;;;;;4909744;29;20049;-74
2021/09/07 03:16:34;;;;;;;14.15;6.85;;;14.00;99.90;;;;;;4910200;29;20029;-74
2021/09/07 03:19:00;;;;;;;13.40;6.28;;;14.00;99.90;;;;;;4925669;29;20084;-74
2021/09/07 03:21:26;;;;;;;14.40;7.38;;;13.90;99.90;;;;;;4911552;29;20025;-75
2021/09/07 03:23:52;;;;;;;14.00;7.38;;;14.00;99.90;;;;;;4910197;29;20500;-74
2021/09/07 03:26:17;;;;;;;16.90;6.90;;;13.90;99.90;;;;;;4925923;29;20037;-73
2021/09/07 03:28:43;;;;;;;12.73;6.15;;;13.90;99.90;;;;;;4925749;29;20025;-76
2021/09/07 03:31:08;;;;;;;19.55;6.45;;;13.90;99.90;;;;;;4910955;29;20077;-73
2021/09/07 03:33:34;;;;;;;13.43;7.00;;;13.90;99.90;;;;;;4911033;29;20029;-75
2021/09/07 03:35:59;;;;;;;13.20;6.43;;;13.90;99.90;;;;;;4911455;29;20374;-75
2021/09/07 03:38:25;;;;;;;12.35;5.95;;;13.90;99.90;;;;;;4911112;29;20032;-76
2021/09/07 03:40:51;;;;;;;15.93;7.25;;;13.90;99.90;;;;;;4911507;29;20974;-76
2021/09/07 03:43:17;;;;;;;14.82;6.45;;;13.90;99.90;;;;;;4925996;29;20085;-73
2021/09/07 03:45:42;;;;;;;10.63;5.95;;;13.90;99.90;;;;;;4910620;29;20044;-74
2021/09/07 03:48:08;;;;;;;14.63;6.70;;;13.90;99.90;;;;;;4909695;29;20517;-74
2021/09/07 03:50:34;;;;;;;11.85;6.63;;;14.00;99.90;;;;;;4910973;29;20094;-75
2021/09/07 03:53:00;;;;;;;15.45;6.95;;;14.00;99.90;;;;;;4909382;29;20070;-74
2021/09/07 03:55:26;;;;;;;14.77;7.65;;;14.00;99.90;;;;;;4911088;29;20092;-74
2021/09/07 03:57:51;;;;;;;14.43;6.93;;;14.00;99.90;;;;;;4909376;29;20033;-74
2021/09/07 04:00:17;;;;;;;9.35;5.57;;;13.90;99.90;;;;;;4910600;29;20509;-75
2021/09/07 04:02:43;;;;;;;16.20;6.68;;;13.90;99.90;;;;;;4909518;29;20037;-76
2021/09/07 04:05:09;;;;;;;14.57;6.78;;;13.90;99.90;;;;;;4910800;29;20028;-74
2021/09/07 04:07:35;;;;;;;14.80;6.22;;;13.90;99.90;;;;;;4910148;29;20080;-74
2021/09/07 04:10:01;;;;;;;15.43;6.75;;;13.80;99.90;;;;;;4910678;29;20078;-75
2021/09/07 04:12:26;;;;;;;17.50;6.05;;;13.80;99.90;;;;;;4910934;29;20037;-75
2021/09/07 04:14:52;;;;;;;20.67;6.72;;;13.80;99.90;;;;;;4912188;29;20096;-75
2021/09/07 04:17:18;;;;;;;9.25;5.15;;;13.80;99.90;;;;;;4929637;29;20675;-75
2021/09/07 04:19:44;;;;;;;15.60;6.97;;;13.90;99.90;;;;;;4912179;29;20576;-75
2021/09/07 04:22:13;;;;;;;17.65;6.85;;;13.80;99.90;;;;;;4911812;29;20490;-77
2021/09/07 04:24:39;;;;;;;10.88;5.90;;;13.80;99.90;;;;;;4912208;29;20056;-76
2021/09/07 04:27:04;;;;;;;15.98;6.57;;;13.80;99.90;;;;;;4928360;29;20032;-75
2021/09/07 04:29:31;;;;;;;15.48;6.40;;;13.80;99.90;;;;;;4928711;29;20116;-74
2021/09/07 04:31:57;;;;;;;17.13;6.70;;;13.70;99.90;;;;;;4929388;29;20024;-75
2021/09/07 04:34:23;;;;;;;11.27;6.18;;;13.70;99.90;;;;;;4929090;29;20039;-74
2021/09/07 04:36:48;;;;;;;11.55;5.40;;;13.70;99.90;;;;;;4929217;29;20032;-75
2021/09/07 04:39:14;;;;;;;10.30;5.53;;;13.70;99.90;;;;;;4911917;29;20552;-74
2021/09/07 04:41:40;;;;;;;10.77;6.05;;;13.70;99.90;;;;;;4928485;29;20047;-75
2021/09/07 04:44:06;;;;;;;14.65;6.10;;;13.70;99.90;;;;;;4928897;29;20479;-76
2021/09/07 04:46:31;;;;;;;14.02;5.35;;;13.80;99.90;;;;;;4928846;29;20105;-75
2021/09/07 04:48:57;;;;;;;15.20;6.72;;;13.80;99.90;;;;;;4928604;29;20429;-75
2021/09/07 04:51:24;;;;;;;13.95;5.45;;;13.90;99.90;;;;;;4929046;29;20048;-75
2021/09/07 04:53:50;;;;;;;11.70;5.80;;;13.80;99.90;;;;;;4911832;29;20028;-76
2021/09/07 04:56:18;;;;;;;16.90;6.38;;;13.90;99.90;;;;;;4928380;29;20564;-76
2021/09/07 04:58:43;;;;;;;16.33;6.35;;;14.00;99.90;;;;;;4928603;29;20028;-76
2021/09/07 05:01:09;;;;;;;13.70;6.28;;;13.90;99.90;;;;;;4928686;29;20024;-75
2021/09/07 05:03:35;;;;;;;12.52;6.20;;;13.90;99.90;;;;;;4928170;29;20385;-75
2021/09/07 05:06:00;;;;;;;12.43;6.60;;;14.00;99.90;;;;;;4928513;29;20032;-74
2021/09/07 05:08:27;;;;;;;13.32;6.70;;;14.00;99.90;;;;;;4911703;29;20473;-76
2021/09/07 05:10:52;;;;;;;16.38;6.75;;;14.00;99.90;;;;;;4918903;29;20040;-75
2021/09/07 05:13:18;;;;;;;16.65;6.80;;;14.00;99.90;;;;;;4907868;29;20057;-77
2021/09/07 05:15:44;;;;;;;19.17;6.85;;;14.00;99.90;;;;;;4909451;29;20024;-75
2021/09/07 05:18:09;;;;;;;11.52;5.75;;;14.00;99.90;;;;;;4909210;29;20107;-75
2021/09/07 05:20:35;;;;;;;10.57;5.97;;;14.00;99.90;;;;;;4909477;29;20088;-75
2021/09/07 05:23:01;;;;;;;9.85;5.28;;;14.10;99.90;;;;;;4913649;29;20024;-78
2021/09/07 05:25:29;;;;;;;14.00;6.47;;;14.10;99.90;;;;;;4928319;29;20036;-77
2021/09/07 05:27:55;;;;;;;18.42;7.57;;;14.20;99.90;;;;;;4928500;29;20024;-76
2021/09/07 05:30:21;;;;;;;15.32;7.38;;;14.20;99.90;;;;;;4910969;29;20063;-78
2021/09/07 05:32:47;;;;;;;15.23;7.80;;;14.20;99.90;;;;;;4911056;29;20028;-76
2021/09/07 05:35:13;;;;;;;19.40;7.32;;;14.30;99.90;;;;;;4911041;29;20030;-77
2021/09/07 05:37:40;;;;;;;13.30;6.60;;;14.30;99.90;;;;;;4910499;29;20061;-74
2021/09/07 05:40:11;;;;;;;14.30;7.25;;;14.30;99.90;;;;;;4920585;29;20115;-73
2021/09/07 05:42:38;;;;;;;18.77;7.00;;;14.40;99.90;;;;;;4915642;29;20076;-74
2021/09/07 05:45:04;;;;;;;13.13;7.38;;;14.40;99.90;;;;;;4923356;29;20035;-74
2021/09/07 05:47:30;;;;;;;14.07;6.32;;;14.40;99.90;;;;;;4914765;29;20041;-73
2021/09/07 05:49:57;;;;;;;15.07;6.45;;;14.50;99.90;;;;;;4923307;29;20035;-73
2021/09/07 05:52:23;;;;;;;17.58;7.22;;;14.60;99.90;;;;;;4928000;29;20032;-74
2021/09/07 05:54:49;;;;;;;18.10;7.15;;;14.60;99.90;;;;;;4928971;29;20036;-73
2021/09/07 05:57:15;;;;;;;15.68;6.30;;;14.60;99.90;;;;;;4928605;29;20027;-74
2021/09/07 05:59:40;;;;;;;18.67;6.13;;;14.70;99.90;;;;;;4918702;29;20035;-74
2021/09/07 06:02:06;;;;;;;18.05;5.70;;;14.70;99.90;;;;;;4893188;29;20067;-73
2021/09/07 06:04:31;;;;;;;30.02;5.18;;;14.60;99.90;;;;;;4909172;29;20047;-74
2021/09/07 06:06:57;;;;;;;33.38;6.90;;;14.70;99.90;;;;;;4911385;29;20028;-73
2021/09/07 06:09:23;;;;;;;12.32;5.55;;;14.70;99.90;;;;;;4911965;29;20046;-75
2021/09/07 06:11:49;;;;;;;17.40;6.82;;;14.80;99.90;;;;;;4910081;29;20036;-72
2021/09/07 06:14:14;;;;;;;26.38;6.68;;;14.70;99.90;;;;;;4920253;29;20088;-73
2021/09/07 06:16:40;;;;;;;13.57;6.05;;;14.80;99.90;;;;;;4927827;29;20034;-72
2021/09/07 06:19:06;;;;;;;14.77;6.90;;;14.80;99.90;;;;;;4911708;29;20032;-74
2021/09/07 06:21:32;;;;;;;17.70;7.93;;;14.80;99.90;;;;;;4919722;29;20111;-74
2021/09/07 06:23:58;;;;;;;19.23;7.15;;;14.90;99.90;;;;;;4927623;29;20092;-74
2021/09/07 06:26:24;;;;;;;20.42;6.85;;;14.90;99.90;;;;;;4916282;29;20043;-76
2021/09/07 06:28:49;;;;;;;15.10;5.85;;;14.90;99.90;;;;;;4908578;29;20028;-72
2021/09/07 06:31:15;;;;;;;19.55;7.55;;;14.90;99.90;;;;;;4908683;29;20054;-73
2021/09/07 06:33:41;;;;;;;20.98;8.20;;;14.90;99.90;;;;;;4908781;29;20048;-73
2021/09/07 06:36:06;;;;;;;16.38;7.55;;;15.00;99.90;;;;;;4908552;29;20029;-73
2021/09/07 06:38:32;;;;;;;16.63;6.95;;;15.00;99.90;;;;;;4908605;29;20037;-74
2021/09/07 06:40:57;;;;;;;19.20;7.70;;;15.10;99.90;;;;;;4892229;29;20035;-74
2021/09/07 06:43:24;;;;;;;17.05;6.47;;;15.00;99.90;;;;;;4914335;29;20069;-73
2021/09/07 06:45:49;;;;;;;18.63;6.35;;;15.00;99.90;;;;;;4908872;29;20059;-71
2021/09/07 06:48:15;;;;;;;14.73;7.18;;;15.00;99.90;;;;;;4908591;29;20017;-71
2021/09/07 06:50:41;;;;;;;13.13;7.03;;;15.00;99.90;;;;;;4909972;29;20037;-72
2021/09/07 06:53:06;;;;;;;23.65;7.72;;;15.10;99.90;;;;;;4912225;29;20393;-73
2021/09/07 06:55:32;;;;;;;14.32;7.38;;;15.10;99.90;;;;;;4911975;29;20035;-73
2021/09/07 06:57:57;;;;;;;21.52;7.53;;;15.10;99.90;;;;;;4894659;29;20033;-72
2021/09/07 07:00:23;;;;;;;21.13;8.13;;;15.20;99.90;;;;;;4912099;29;20097;-75
2021/09/07 07:02:50;;;;;;;17.45;7.90;;;15.30;99.90;;;;;;4912151;29;20505;-75
2021/09/07 07:05:15;;;;;;;16.17;8.73;;;15.30;99.90;;;;;;4894989;29;20072;-72
2021/09/07 07:07:41;;;;;;;18.25;8.63;;;15.50;99.90;;;;;;4911792;29;20052;-75
2021/09/07 07:10:07;;;;;;;15.05;7.95;;;15.60;99.90;;;;;;4911214;29;20060;-73
2021/09/07 07:12:32;;;;;;;19.05;8.57;;;15.70;99.90;;;;;;4894343;29;20028;-73
2021/09/07 07:14:58;;;;;;;20.92;9.00;;;15.80;99.90;;;;;;4895004;29;20100;-73
2021/09/07 07:17:24;;;;;;;15.70;7.53;;;16.00;99.90;;;;;;4911536;29;20037;-75
2021/09/07 07:19:51;;;;;;;17.67;8.10;;;16.20;99.90;;;;;;4912542;29;20049;-72
2021/09/07 07:22:17;;;;;;;17.58;8.25;;;16.40;99.90;;;;;;4918506;29;20099;-75
2021/09/07 07:24:43;;;;;;;20.95;8.20;;;16.60;99.90;;;;;;4919532;29;20119;-73
2021/09/07 07:27:09;;;;;;;16.35;8.20;;;16.70;99.90;;;;;;4901765;29;20029;-73
2021/09/07 07:29:35;;;;;;;12.02;6.60;;;16.80;99.90;;;;;;4911485;29;20138;-72
2021/09/07 07:32:00;;;;;;;21.63;7.05;;;16.90;99.90;;;;;;4911358;29;20028;-72
2021/09/07 07:34:26;;;;;;;20.85;7.80;;;16.90;99.90;;;;;;4910245;29;20077;-72
2021/09/07 07:36:54;;;;;;;15.43;6.93;;;17.00;99.90;;;;;;4910099;29;20036;-73
2021/09/07 07:39:21;;;;;;;16.58;7.22;;;16.90;99.90;;;;;;4911147;29;20100;-73
2021/09/07 07:41:47;;;;;;;16.13;7.82;;;17.00;99.90;;;;;;4911292;29;20025;-73
2021/09/07 07:44:12;;;;;;;13.77;6.70;;;17.10;99.90;;;;;;4911155;29;20043;-72
2021/09/07 07:46:38;;;;;;;11.05;6.60;;;17.20;99.90;;;;;;4911053;29;20070;-73
2021/09/07 07:49:03;;;;;;;14.07;6.20;;;17.20;99.90;;;;;;4909804;29;20031;-74
2021/09/07 07:51:30;;;;;;;9.38;6.30;;;17.30;99.90;;;;;;4911235;29;20051;-72
2021/09/07 07:53:56;;;;;;;12.05;6.00;;;17.30;99.90;;;;;;4893834;29;20028;-71
2021/09/07 07:56:22;;;;;;;10.45;5.90;;;17.30;99.90;;;;;;4911180;29;20056;-73
2021/09/07 07:58:47;;;;;;;11.45;6.50;;;17.40;99.90;;;;;;4909378;29;20041;-72
2021/09/07 08:01:13;;;;;;;12.27;5.75;;;17.30;99.90;;;;;;4910317;29;20041;-71
2021/09/07 08:03:44;;;;;;;10.48;5.85;;;17.40;99.90;;;;;;4910905;29;20036;-74
2021/09/07 08:06:10;;;;;;;11.02;5.85;;;17.40;99.90;;;;;;4910832;29;20053;-72
2021/09/07 08:08:36;;;;;;;12.60;5.55;;;17.40;99.90;;;;;;4910834;29;20036;-72
2021/09/07 08:11:01;;;;;;;13.32;6.50;;;17.50;99.90;;;;;;4910698;29;20045;-73
2021/09/07 08:13:30;;;;;;;9.50;6.00;;;17.40;99.90;;;;;;4910392;29;20048;-74
2021/09/07 08:15:56;;;;;;;13.65;6.38;;;17.50;99.90;;;;;;4910311;29;20024;-73
2021/09/07 08:18:22;;;;;;;16.25;6.68;;;17.50;99.90;;;;;;4909475;29;20037;-73
2021/09/07 08:20:48;;;;;;;10.18;5.72;;;17.50;99.90;;;;;;4910395;29;20068;-73
2021/09/07 08:23:15;;;;;;;13.70;7.75;;;17.60;99.90;;;;;;4893316;29;20048;-71
2021/09/07 08:25:40;;;;;;;14.65;6.75;;;17.60;99.90;;;;;;4910310;29;20075;-74
2021/09/07 08:28:06;;;;;;;10.45;6.10;;;17.60;99.90;;;;;;4891262;29;20033;-71
2021/09/07 08:30:32;;;;;;;16.10;7.28;;;17.60;99.90;;;;;;4925261;29;20048;-73
2021/09/07 08:32:59;;;;;;;11.30;6.35;;;17.70;99.90;;;;;;4917658;29;20043;-73
2021/09/07 08:35:25;;;;;;;18.35;9.73;;;17.80;99.90;;;;;;4917733;29;20084;-73
2021/09/07 08:37:51;;;;;;;14.93;7.68;;;17.80;99.90;;;;;;4917120;29;20880;-73
2021/09/07 08:40:17;;;;;;;18.42;7.95;;;17.80;99.90;;;;;;4924532;29;20040;-74
2021/09/07 08:42:43;;;;;;;12.32;7.57;;;18.00;99.90;;;;;;4917203;29;20106;-74
2021/09/07 08:45:13;;;;;;;17.20;6.97;;;18.10;99.90;;;;;;4913655;29;20156;-75
2021/09/07 08:47:38;;;;;;;15.32;7.50;;;18.20;99.90;;;;;;4911827;29;20496;-73
2021/09/07 08:50:04;;;;;;;12.13;6.22;;;18.30;99.90;;;;;;4915570;29;20040;-74
2021/09/07 08:52:30;;;;;;;10.75;5.35;;;18.40;99.90;;;;;;4913560;29;20062;-73
2021/09/07 08:54:57;;;;;;;10.25;5.07;;;18.50;99.90;;;;;;4919493;29;20470;-73
2021/09/07 08:57:23;;;;;;;13.45;4.82;;;18.70;99.90;;;;;;4912975;29;20493;-73
2021/09/07 09:00:05;;;;;;;11.68;4.90;;;18.80;99.90;;;;;;4916584;29;20047;-72
2021/09/07 09:02:39;;;;;;;8.38;4.38;;;18.90;99.90;;;;;;4914593;29;20028;-75
2021/09/07 09:05:06;;;;;;;9.15;4.80;;;18.90;99.90;;;;;;4920245;29;20043;-74
2021/09/07 09:07:32;;;;;;;10.15;5.38;;;19.00;99.90;;;;;;4926525;29;20030;-74
2021/09/07 09:10:00;;;;;;;8.65;4.22;;;19.00;99.90;;;;;;4928189;29;20032;-72
2021/09/07 09:12:37;;;;;;;6.20;4.38;;;19.00;99.90;;;;;;4927692;29;20111;-75
2021/09/07 09:15:10;;;;;;;8.70;4.07;;;19.10;99.90;;;;;;4928353;29;20389;-76
2021/09/07 09:17:36;;;;;;;11.73;5.80;;;19.30;99.90;;;;;;4928280;29;20450;-73
2021/09/07 09:20:07;;;;;;;12.00;5.68;;;19.30;99.90;;;;;;4918402;29;20040;-76
2021/09/07 09:22:49;;;;;;;14.85;6.13;;;19.40;99.90;;;;;;4926127;29;20032;-72
2021/09/07 09:25:24;;;;;;;17.27;5.60;;;19.40;99.90;;;;;;4912330;29;20040;-72
2021/09/07 09:28:16;;;;;;;10.65;5.65;;;19.40;99.90;;;;;;4921923;29;20051;-73
2021/09/07 09:30:47;;;;;;;17.40;6.22;;;19.60;99.90;;;;;;4903054;29;20076;-73
2021/09/07 09:33:17;;;;;;;12.20;5.75;;;19.60;99.90;;;;;;4921955;29;20036;-74
2021/09/07 09:35:51;;;;;;;15.07;5.75;;;19.70;99.90;;;;;;4928220;29;20107;-72
2021/09/07 09:38:21;;;;;;;11.48;5.90;;;19.70;99.90;;;;;;4919400;29;20043;-73
2021/09/07 09:40:58;;;;;;;14.70;5.90;;;19.80;99.90;;;;;;4911495;29;20132;-72
2021/09/07 09:43:37;;;;;;;10.35;5.65;;;19.80;99.90;;;;;;4908621;29;20039;-73
2021/09/07 09:46:25;;;;;;;12.45;5.95;;;19.90;99.90;;;;;;4908776;29;20029;-74
2021/09/07 09:48:54;;;;;;;13.18;5.13;;;20.00;99.90;;;;;;4892446;29;20501;-74
2021/09/07 09:51:21;;;;;;;10.07;4.50;;;20.10;99.90;;;;;;4918591;29;20078;-72
2021/09/07 09:53:49;;;;;;;11.93;4.20;;;20.10;99.90;;;;;;4926670;29;20060;-73
2021/09/07 09:56:17;;;;;;;11.30;4.72;;;20.20;99.90;;;;;;4913781;29;20073;-72
2021/09/07 09:58:43;;;;;;;16.13;5.63;;;20.30;99.90;;;;;;4907707;29;20087;-72
2021/09/07 10:01:09;;;;;;;19.60;5.25;;;20.40;99.90;;;;;;4908213;29;20052;-73
2021/09/07 10:03:39;;;;;;;10.13;5.47;;;20.50;99.90;;;;;;4900977;29;20039;-74
2021/09/07 10:06:05;;;;;;;12.90;5.18;;;20.50;99.90;;;;;;4910591;29;20084;-73
2021/09/07 10:08:31;;;;;;;8.32;4.10;;;20.60;99.90;;;;;;4915875;29;20052;-73
2021/09/07 10:11:11;;;;;;;12.75;5.28;;;20.70;99.90;;;;;;4905625;29;20450;-74
2021/09/07 10:13:42;;;;;;;7.75;4.80;;;20.90;99.90;;;;;;4908534;29;20080;-73
2021/09/07 10:16:17;;;;;;;15.45;5.53;;;21.10;99.90;;;;;;4908970;29;20100;-74
2021/09/07 10:26:45;;;;;;;13.23;6.13;;;21.40;99.90;;;;;;4931073;29;20051;-73
2021/09/07 10:29:22;;;;;;;10.15;5.43;;;21.50;99.90;;;;;;4930899;29;20032;-74
2021/09/07 10:31:53;;;;;;;10.27;4.78;;;21.60;99.90;;;;;;4931546;29;20031;-71
2021/09/07 10:34:26;;;;;;;10.90;5.32;;;21.70;99.90;;;;;;4914233;29;20036;-73
2021/09/07 10:36:55;;;;;;;11.35;5.18;;;21.90;99.90;;;;;;4931298;29;20117;-73
2021/09/07 10:39:40;;;;;;;17.83;6.03;;;22.00;99.90;;;;;;4926237;29;20033;-72
2021/09/07 10:42:12;;;;;;;14.57;6.15;;;22.20;99.90;;;;;;4919722;29;20039;-72
2021/09/07 10:44:42;;;;;;;13.00;5.63;;;22.20;99.90;;;;;;4918673;29;20043;-73
2021/09/07 10:47:14;;;;;;;14.35;5.00;;;22.20;99.90;;;;;;4924507;29;20036;-73
2021/09/07 10:49:46;;;;;;;14.23;5.00;;;22.00;99.90;;;;;;4910104;29;20081;-73
2021/09/07 10:52:32;;;;;;;13.50;6.18;;;22.00;99.90;;;;;;4912236;29;20031;-72
2021/09/07 10:55:09;;;;;;;14.55;6.18;;;22.00;99.90;;;;;;4912065;29;20029;-73
2021/09/07 10:57:34;;;;;;;16.60;6.57;;;22.00;99.90;;;;;;4911576;29;20044;-73
2021/09/07 11:00:13;;;;;;;10.15;5.70;;;22.10;99.90;;;;;;4911792;29;20056;-74
2021/09/07 11:02:51;;;;;;;15.05;6.68;;;22.00;99.90;;;;;;4911753;29;20028;-74
2021/09/07 11:05:25;;;;;;;14.32;6.00;;;21.90;99.90;;;;;;4895026;29;20038;-72
2021/09/07 11:08:13;;;;;;;12.70;6.22;;;21.90;99.90;;;;;;4894835;29;20045;-72
2021/09/07 11:10:52;;;;;;;10.93;5.85;;;22.00;99.90;;;;;;4910895;29;20064;-73
2021/09/07 11:13:25;;;;;;;16.33;6.15;;;22.20;99.90;;;;;;4911204;29;20064;-72
2021/09/07 11:15:53;;;;;;;16.02;5.68;;;22.20;99.90;;;;;;4894768;29;20036;-73
2021/09/07 11:18:25;;;;;;;10.68;5.47;;;22.40;99.90;;;;;;4911566;29;20036;-72
2021/09/07 11:20:52;;;;;;;8.23;4.53;;;22.50;99.90;;;;;;4895938;29;20024;-72
2021/09/07 11:23:26;;;;;;;11.18;5.85;;;22.60;99.90;;;;;;4917214;29;20028;-72
2021/09/07 11:26:03;;;;;;;12.98;5.95;;;22.70;99.90;;;;;;4930473;29;20128;-71
2021/09/07 11:28:30;;;;;;;17.95;6.25;;;22.90;99.90;;;;;;4930405;29;20070;-73
2021/09/07 11:30:58;;;;;;;13.77;6.55;;;22.80;99.90;;;;;;4930114;29;20040;-73
2021/09/07 11:33:28;;;;;;;13.65;6.03;;;23.00;99.90;;;;;;4915576;29;20047;-74
2021/09/07 11:36:04;;;;;;;18.40;6.28;;;23.10;99.90;;;;;;4910977;29;20021;-72
2021/09/07 11:38:32;;;;;;;18.25;5.78;;;23.30;99.90;;;;;;4910872;29;20036;-71
2021/09/07 11:41:01;;;;;;;9.70;5.20;;;23.30;99.90;;;;;;4911267;29;20028;-72
2021/09/07 11:43:59;;;;;;;11.80;5.55;;;23.40;99.90;;;;;;4894219;29;20032;-74
2021/09/07 11:46:34;;;;;;;14.63;6.00;;;23.50;99.90;;;;;;4859605;29;20474;-74
2021/09/07 11:49:09;;;;;;;15.15;6.03;;;23.30;99.90;;;;;;4894347;29;20036;-72
2021/09/07 11:51:36;;;;;;;10.90;5.28;;;23.30;99.90;;;;;;4910420;29;20041;-73
2021/09/07 11:54:04;;;;;;;13.35;6.10;;;23.20;99.90;;;;;;4894065;29;20033;-73
2021/09/07 11:56:32;;;;;;;12.10;5.65;;;23.10;99.90;;;;;;4910984;29;20036;-74
2021/09/07 11:59:15;;;;;;;9.73;5.53;;;23.10;99.90;;;;;;4893677;29;20470;-72
2021/09/07 12:01:44;;;;;;;14.20;5.55;;;23.20;99.90;;;;;;4910528;29;20044;-72
2021/09/07 12:04:17;;;;;;;14.88;5.00;;;23.20;99.90;;;;;;4920075;29;20032;-75
2021/09/07 12:06:45;;;;;;;14.45;5.75;;;23.40;99.90;;;;;;4912194;29;20072;-72
2021/09/07 12:09:20;;;;;;;11.93;5.45;;;23.70;99.90;;;;;;4925509;29;20032;-73
2021/09/07 12:11:51;;;;;;;12.35;5.90;;;24.00;99.90;;;;;;4910266;29;20047;-74
2021/09/07 12:14:21;;;;;;;10.82;5.28;;;24.30;99.90;;;;;;4910350;29;20108;-72
2021/09/07 12:16:55;;;;;;;16.20;5.75;;;24.50;99.90;;;;;;4910736;29;20021;-72
2021/09/07 12:19:33;;;;;;;8.70;4.80;;;24.60;99.90;;;;;;4920220;29;20024;-74
2021/09/07 12:22:08;;;;;;;12.07;5.78;;;24.70;99.90;;;;;;4929512;29;20028;-73
2021/09/07 12:24:35;;;;;;;11.63;6.00;;;24.90;99.90;;;;;;4912282;29;20039;-71
2021/09/07 12:27:22;;;;;;;15.52;5.93;;;25.00;99.90;;;;;;4911976;29;20422;-71
2021/09/07 12:30:07;;;;;;;8.93;4.70;;;25.20;99.90;;;;;;4912971;29;20043;-73
2021/09/07 12:32:54;;;;;;;9.52;5.60;;;25.40;99.90;;;;;;4930405;29;20083;-72
2021/09/07 12:35:38;;;;;;;15.13;5.70;;;25.50;99.90;;;;;;4929882;29;21067;-72
2021/09/07 12:38:32;;;;;;;13.38;6.72;;;25.70;99.90;;;;;;4929025;29;20063;-71
2021/09/07 12:41:10;;;;;;;11.73;5.80;;;26.00;99.90;;;;;;4924236;29;20032;-72
2021/09/07 12:43:41;;;;;;;12.68;5.82;;;26.10;99.90;;;;;;4926447;29;20099;-72
2021/09/07 12:46:16;;;;;;;11.00;5.43;;;26.30;99.90;;;;;;4919686;29;20052;-71
2021/09/07 12:48:44;;;;;;;15.60;5.70;;;26.50;99.90;;;;;;4922731;29;20033;-73
2021/09/07 12:51:12;;;;;;;8.13;4.95;;;26.80;99.90;;;;;;4908801;29;20049;-71